sensor_id;sensor_type;location;lat;lon;timestamp;temperature;humidity
31687;DHT22;18285;51.330;4.946;2022-10-26T00:20:31;23.60;47.10
31687;DHT22;18285;51.330;4.946;2022-10-26T01:08:58;23.60;47.20
31687;DHT22;18285;51.330;4.946;2022-10-26T01:33:18;23.60;47.20
31687;DHT22;18285;51.330;4.946;2022-10-26T01:57:36;23.60;47.00
31687;DHT22;18285;51.330;4.946;2022-10-26T02:21:51;23.60;47.10
31687;DHT22;18285;51.330;4.946;2022-10-26T02:46:07;23.60;47.10
31687;DHT22;18285;51.330;4.946;2022-10-26T03:10:19;23.60;47.00
31687;DHT22;18285;51.330;4.946;2022-10-26T03:34:30;23.60;47.00
31687;DHT22;18285;51.330;4.946;2022-10-26T03:58:41;23.60;47.20
31687;DHT22;18285;51.330;4.946;2022-10-26T04:23:02;23.60;47.10
31687;DHT22;18285;51.330;4.946;2022-10-26T04:47:12;23.60;47.20
31687;DHT22;18285;51.330;4.946;2022-10-26T05:11:23;23.70;47.30
31687;DHT22;18285;51.330;4.946;2022-10-26T05:35:34;23.60;47.50
31687;DHT22;18285;51.330;4.946;2022-10-26T05:59:45;23.60;47.80
31687;DHT22;18285;51.330;4.946;2022-10-26T06:24:08;23.70;48.10
31687;DHT22;18285;51.330;4.946;2022-10-26T06:48:24;23.70;47.70
31687;DHT22;18285;51.330;4.946;2022-10-26T07:12:37;23.60;47.60
31687;DHT22;18285;51.330;4.946;2022-10-26T07:36:48;23.60;47.50
31687;DHT22;18285;51.330;4.946;2022-10-26T08:01:09;23.60;47.50
31687;DHT22;18285;51.330;4.946;2022-10-26T08:25:20;23.60;47.70
31687;DHT22;18285;51.330;4.946;2022-10-26T08:49:52;23.60;47.90
31687;DHT22;18285;51.330;4.946;2022-10-26T09:14:15;23.70;47.90
31687;DHT22;18285;51.330;4.946;2022-10-26T10:02:40;23.70;48.40
31687;DHT22;18285;51.330;4.946;2022-10-26T10:51:24;23.50;50.60
31687;DHT22;18285;51.330;4.946;2022-10-26T11:15:36;23.60;51.70
31687;DHT22;18285;51.330;4.946;2022-10-26T12:04:13;23.60;51.70
31687;DHT22;18285;51.330;4.946;2022-10-26T12:52:51;23.70;51.10
31687;DHT22;18285;51.330;4.946;2022-10-26T13:17:04;23.80;50.60
31687;DHT22;18285;51.330;4.946;2022-10-26T13:41:45;23.80;50.80
31687;DHT22;18285;51.330;4.946;2022-10-26T14:05:56;23.70;50.70
31687;DHT22;18285;51.330;4.946;2022-10-26T14:54:33;23.70;50.70
31687;DHT22;18285;51.330;4.946;2022-10-26T15:18:47;23.70;50.60
31687;DHT22;18285;51.330;4.946;2022-10-26T15:43:00;23.70;51.10
31687;DHT22;18285;51.330;4.946;2022-10-26T16:07:12;23.70;51.30
31687;DHT22;18285;51.330;4.946;2022-10-26T16:31:24;23.70;51.30
31687;DHT22;18285;51.330;4.946;2022-10-26T16:55:34;23.80;51.20
31687;DHT22;18285;51.330;4.946;2022-10-26T17:19:45;23.80;51.20
31687;DHT22;18285;51.330;4.946;2022-10-26T17:43:56;23.80;51.10
31687;DHT22;18285;51.330;4.946;2022-10-26T18:08:07;23.80;51.00
31687;DHT22;18285;51.330;4.946;2022-10-26T18:32:17;23.80;51.10
31687;DHT22;18285;51.330;4.946;2022-10-26T18:56:30;23.80;51.10
31687;DHT22;18285;51.330;4.946;2022-10-26T19:20:40;23.80;51.20
31687;DHT22;18285;51.330;4.946;2022-10-26T19:44:51;23.80;51.20
31687;DHT22;18285;51.330;4.946;2022-10-26T20:09:02;23.80;51.10
31687;DHT22;18285;51.330;4.946;2022-10-26T20:33:13;23.80;51.20
31687;DHT22;18285;51.330;4.946;2022-10-26T20:57:27;23.80;51.10
31687;DHT22;18285;51.330;4.946;2022-10-26T21:21:39;23.80;51.00
31687;DHT22;18285;51.330;4.946;2022-10-26T21:45:55;23.80;50.90
31687;DHT22;18285;51.330;4.946;2022-10-26T22:10:06;23.80;50.80
31687;DHT22;18285;51.330;4.946;2022-10-26T22:34:17;23.80;50.80
31687;DHT22;18285;51.330;4.946;2022-10-26T22:58:28;23.70;50.70
31687;DHT22;18285;51.330;4.946;2022-10-26T23:22:38;23.70;50.70
31687;DHT22;18285;51.330;4.946;2022-10-26T23:46:49;23.70;50.60
